createdAt,value
2023-04-30T16:02:33.285Z,38.54
2023-04-30T16:05:00.132Z,38.76
2023-04-30T16:07:34.271Z,39.17
2023-04-30T16:10:01.423Z,40.31
2023-04-30T16:12:35.214Z,38.99
2023-04-30T16:15:02.084Z,38.91
2023-04-30T16:17:36.368Z,39.51
2023-04-30T16:20:03.634Z,40.39
2023-04-30T16:22:37.280Z,39.88
2023-04-30T16:25:04.602Z,40.13
2023-04-30T16:27:38.226Z,41.01
2023-04-30T16:30:06.058Z,42.12
2023-04-30T16:32:40.386Z,42.59
2023-04-30T16:35:07.665Z,41.34
2023-04-30T16:37:34.387Z,42.02
2023-04-30T16:40:08.243Z,42.56
2023-04-30T16:42:35.466Z,41.58
2023-04-30T16:45:09.336Z,41.02
2023-04-30T16:47:36.294Z,41.80
2023-04-30T16:50:10.261Z,42.06
2023-04-30T16:52:37.135Z,42.12
2023-04-30T16:55:11.239Z,41.96
2023-04-30T16:57:37.976Z,41.01
2023-04-30T17:00:26.239Z,42.06
2023-04-30T17:02:53.668Z,42.37
2023-04-30T17:05:32.384Z,41.60
2023-04-30T17:07:59.278Z,42.16
2023-04-30T17:16:41.294Z,42.99
2023-04-30T17:19:08.257Z,44.54
2023-04-30T17:24:22.730Z,44.68
2023-04-30T17:26:57.248Z,44.83
2023-04-30T17:29:30.219Z,44.58
2023-04-30T17:34:46.938Z,44.97
2023-04-30T17:37:20.349Z,44.58
2023-04-30T17:43:31.337Z,45.99
2023-04-30T17:45:58.332Z,45.56
2023-04-30T17:48:35.057Z,46.78
2023-04-30T17:51:03.646Z,46.40
2023-04-30T17:56:16.787Z,47.72
2023-04-30T17:58:52.351Z,47.28
2023-04-30T18:04:59.295Z,47.47
2023-04-30T18:07:31.940Z,48.44
2023-04-30T18:10:05.352Z,49.31
2023-04-30T18:12:32.325Z,48.12
2023-04-30T18:15:08.248Z,48.68
2023-04-30T18:17:38.337Z,49.07
2023-04-30T18:20:13.750Z,48.43
2023-04-30T18:22:53.133Z,48.99
2023-04-30T18:25:26.453Z,49.94
2023-04-30T18:28:00.299Z,49.84
2023-04-30T18:30:29.260Z,50.82
2023-04-30T18:39:21.596Z,51.86
2023-04-30T18:41:56.335Z,52.43
2023-04-30T18:44:48.210Z,52.49
2023-04-30T18:47:24.353Z,53.32
2023-04-30T18:49:51.459Z,52.62
2023-04-30T18:52:25.331Z,53.13
2023-04-30T18:54:52.468Z,54.20
2023-04-30T18:57:21.516Z,54.41
2023-04-30T18:59:58.589Z,55.47
2023-04-30T19:02:34.818Z,56.18
2023-04-30T19:08:05.355Z,55.92
2023-04-30T19:10:40.390Z,55.72
2023-04-30T19:13:14.425Z,57.25
2023-04-30T19:15:48.963Z,56.36
2023-04-30T19:18:23.407Z,58.01
2023-04-30T19:23:46.421Z,58.56
2023-04-30T19:26:22.389Z,58.17
2023-04-30T19:28:52.109Z,59.43
2023-04-30T19:31:31.872Z,60.16
2023-04-30T19:36:56.651Z,61.08
2023-04-30T19:39:28.986Z,61.28
2023-04-30T19:44:44.414Z,61.86
2023-04-30T19:57:57.319Z,60.97
2023-04-30T20:06:33.468Z,61.86
2023-04-30T20:09:09.447Z,61.71
2023-04-30T20:11:36.586Z,62.72
2023-04-30T20:14:14.015Z,62.71
2023-04-30T20:23:52.414Z,62.25
2023-04-30T20:26:21.316Z,61.66
2023-04-30T20:34:16.488Z,62.18
2023-04-30T20:52:31.396Z,61.40
2023-04-30T20:55:10.438Z,60.91
2023-04-30T20:57:45.411Z,62.79
2023-04-30T21:00:15.340Z,62.55
2023-04-30T21:02:56.736Z,62.55
2023-04-30T21:05:31.464Z,63.03
2023-04-30T21:10:53.481Z,63.18
2023-04-30T21:16:08.630Z,63.44
2023-04-30T21:19:07.602Z,64.14
2023-04-30T21:21:37.099Z,64.68
2023-04-30T21:30:37.575Z,64.87
2023-04-30T21:33:32.723Z,65.35
2023-04-30T21:36:00.821Z,66.07
2023-04-30T21:41:16.506Z,66.50
2023-04-30T21:43:57.285Z,67.45
2023-04-30T21:49:12.961Z,67.91
2023-04-30T21:51:49.489Z,67.73
2023-04-30T21:54:31.888Z,66.94
2023-04-30T22:02:42.229Z,67.42
2023-04-30T22:08:07.625Z,67.22
2023-04-30T22:11:24.497Z,66.93
2023-04-30T22:13:53.829Z,67.40
2023-04-30T22:19:11.267Z,67.74
2023-04-30T22:22:14.526Z,67.25
2023-04-30T22:24:41.727Z,67.31
2023-04-30T22:27:58.499Z,67.16
2023-04-30T22:31:08.612Z,67.01
2023-04-30T22:36:31.050Z,67.97
2023-04-30T22:39:06.463Z,67.89
2023-04-30T22:41:34.928Z,68.69
2023-04-30T22:44:21.472Z,67.65
2023-04-30T22:49:45.507Z,67.58
2023-04-30T22:52:15.579Z,68.21
2023-04-30T22:57:36.479Z,68.75
2023-04-30T23:00:31.487Z,68.10
2023-04-30T23:03:30.695Z,68.37
2023-04-30T23:08:53.254Z,69.31
2023-04-30T23:11:40.545Z,68.44
2023-04-30T23:14:10.043Z,68.87
2023-04-30T23:16:56.060Z,68.80
2023-04-30T23:19:23.409Z,69.00
2023-04-30T23:22:26.653Z,68.33
2023-04-30T23:24:58.582Z,68.18
2023-04-30T23:27:38.133Z,68.65
2023-04-30T23:30:08.144Z,68.78
2023-04-30T23:38:45.017Z,69.27
2023-04-30T23:42:16.755Z,68.53
2023-04-30T23:44:57.215Z,69.06
2023-04-30T23:47:25.521Z,69.15
